Time;durP1;ratioP1;P1;durP2;ratioP2;P2;SDS_P1;SDS_P2;PMS_P1;PMS_P2;Temp;Humidity;BMP_temperature;BMP_pressure;BME280_temperature;BME280_humidity;BME280_pressure;Samples;Min_cycle;Max_cycle;Signal;HPM_P1;HPM_P2
2022/07/26 00:00:09;;;;;;;8.63;7.43;;;20.60;1.00;;;;;;6346189;22;20413;-79
2022/07/26 00:02:36;;;;;;;10.17;7.43;;;20.50;1.00;;;;;;6350616;22;20382;-80
2022/07/26 00:05:09;;;;;;;9.10;6.90;;;20.50;1.00;;;;;;6349771;22;20468;-77
2022/07/26 00:07:35;;;;;;;7.73;6.97;;;20.30;1.00;;;;;;6352080;22;20500;-79
2022/07/26 00:10:09;;;;;;;8.60;6.80;;;20.30;1.00;;;;;;6350659;22;20417;-77
2022/07/26 00:12:37;;;;;;;8.83;7.70;;;20.20;1.00;;;;;;6350920;22;20857;-76
2022/07/26 00:15:09;;;;;;;10.17;7.50;;;20.10;1.00;;;;;;6353100;22;20405;-79
2022/07/26 00:17:36;;;;;;;8.37;7.03;;;20.10;1.00;;;;;;6348041;22;20432;-76
2022/07/26 00:20:08;;;;;;;8.17;7.33;;;20.00;1.00;;;;;;6350116;22;20388;-77
2022/07/26 00:22:34;;;;;;;9.43;7.83;;;20.00;1.00;;;;;;6351479;22;20451;-79
2022/07/26 00:25:07;;;;;;;9.63;8.27;;;19.90;1.00;;;;;;6351734;22;20515;-79
2022/07/26 00:27:35;;;;;;;9.43;8.17;;;19.90;1.00;;;;;;6353561;22;20413;-79
2022/07/26 00:30:10;;;;;;;10.97;7.77;;;19.80;1.00;;;;;;6351158;22;20444;-76
2022/07/26 00:32:37;;;;;;;7.40;6.70;;;19.80;1.00;;;;;;6352517;22;20433;-79
2022/07/26 00:35:09;;;;;;;8.33;7.53;;;19.70;1.00;;;;;;6351597;22;20413;-77
2022/07/26 00:37:36;;;;;;;8.20;7.27;;;19.70;1.00;;;;;;6350482;22;20505;-79
2022/07/26 00:40:08;;;;;;;8.40;7.10;;;19.70;1.00;;;;;;6350924;22;20448;-79
2022/07/26 00:42:35;;;;;;;8.77;7.70;;;19.70;1.00;;;;;;6351614;22;20842;-78
2022/07/26 00:45:09;;;;;;;8.03;7.13;;;19.60;1.00;;;;;;6350183;22;20425;-78
2022/07/26 00:47:36;;;;;;;10.77;7.97;;;19.70;1.00;;;;;;6351714;22;20496;-75
2022/07/26 00:50:09;;;;;;;8.40;7.60;;;19.60;1.00;;;;;;6351455;22;20389;-77
2022/07/26 00:52:36;;;;;;;10.17;7.53;;;19.60;1.00;;;;;;6350910;22;20418;-78
2022/07/26 00:55:06;;;;;;;9.47;7.90;;;19.60;1.00;;;;;;6351451;22;20465;-78
2022/07/26 00:57:37;;;;;;;9.30;7.83;;;19.60;1.00;;;;;;6348062;22;20393;-77
2022/07/26 01:00:08;;;;;;;8.87;7.60;;;19.60;1.00;;;;;;6349917;22;20504;-78
2022/07/26 01:02:38;;;;;;;8.20;7.40;;;19.60;1.00;;;;;;6349679;22;20409;-78
2022/07/26 01:05:05;;;;;;;9.57;7.80;;;19.60;1.00;;;;;;6349129;22;20460;-79
2022/07/26 01:07:40;;;;;;;9.20;8.10;;;19.60;1.00;;;;;;6352108;22;20505;-79
2022/07/26 01:10:11;;;;;;;10.17;7.97;;;19.50;1.00;;;;;;6348991;22;20451;-79
2022/07/26 01:12:40;;;;;;;9.40;8.03;;;19.50;1.00;;;;;;6350708;22;20425;-79
2022/07/26 01:15:10;;;;;;;8.27;7.40;;;19.50;1.00;;;;;;6348839;22;20843;-78
2022/07/26 01:17:38;;;;;;;8.57;7.70;;;19.50;1.00;;;;;;6349744;22;20790;-78
2022/07/26 01:20:07;;;;;;;9.83;7.30;;;19.60;1.00;;;;;;6350002;22;20386;-79
2022/07/26 01:22:38;;;;;;;9.80;7.47;;;19.60;1.00;;;;;;6352952;22;20365;-79
2022/07/26 01:25:06;;;;;;;10.30;7.80;;;19.50;1.00;;;;;;6349923;22;20429;-79
2022/07/26 01:27:39;;;;;;;8.23;7.33;;;19.60;1.00;;;;;;6349108;22;20417;-78
2022/07/26 01:30:09;;;;;;;10.17;7.93;;;19.60;1.00;;;;;;6347211;22;20410;-79
2022/07/26 01:32:35;;;;;;;9.80;7.87;;;19.60;1.00;;;;;;6348548;22;20536;-79
2022/07/26 01:35:02;;;;;;;9.60;8.43;;;19.60;1.00;;;;;;6343010;22;20425;-78
2022/07/26 01:37:29;;;;;;;10.20;8.37;;;19.60;1.00;;;;;;6346375;22;20421;-78
2022/07/26 01:39:57;;;;;;;9.57;8.60;;;19.60;1.00;;;;;;6342650;22;20413;-79
2022/07/26 01:42:27;;;;;;;9.97;8.80;;;19.70;1.00;;;;;;6345532;22;20417;-78
2022/07/26 01:44:54;;;;;;;10.43;8.20;;;19.70;1.00;;;;;;6350403;22;20440;-75
2022/07/26 01:47:21;;;;;;;11.50;9.13;;;19.80;1.00;;;;;;6350186;22;20393;-79
2022/07/26 01:49:48;;;;;;;11.63;9.30;;;19.80;1.00;;;;;;6350174;22;20385;-77
2022/07/26 01:52:15;;;;;;;10.33;9.17;;;19.90;1.00;;;;;;6348379;22;20460;-77
2022/07/26 01:54:47;;;;;;;11.40;9.30;;;19.90;1.00;;;;;;6348323;22;20437;-78
2022/07/26 01:57:18;;;;;;;9.83;8.83;;;20.00;1.00;;;;;;6348215;22;20420;-75
2022/07/26 01:59:46;;;;;;;11.13;10.03;;;20.00;1.00;;;;;;6350747;22;20437;-79
2022/07/26 02:02:18;;;;;;;10.60;9.07;;;20.10;1.00;;;;;;6349091;22;20377;-79
2022/07/26 02:05:00;;;;;;;9.87;8.87;;;20.10;1.00;;;;;;6350164;22;20436;-76
2022/07/26 02:07:30;;;;;;;8.37;7.57;;;20.10;1.00;;;;;;6349150;22;20421;-78
2022/07/26 02:09:58;;;;;;;9.73;8.20;;;20.10;1.00;;;;;;6351302;22;20408;-78
2022/07/26 02:12:39;;;;;;;9.37;8.37;;;20.20;1.00;;;;;;6350390;22;20492;-76
2022/07/26 02:15:08;;;;;;;9.97;8.60;;;20.20;1.00;;;;;;6349179;22;20435;-78
2022/07/26 02:17:38;;;;;;;9.83;8.83;;;20.20;1.00;;;;;;6351907;22;20413;-76
2022/07/26 02:20:08;;;;;;;9.33;8.43;;;20.20;1.00;;;;;;6348494;22;20460;-75
2022/07/26 02:22:35;;;;;;;9.27;8.37;;;20.20;1.00;;;;;;6350991;22;20891;-78
2022/07/26 02:25:07;;;;;;;11.80;10.60;;;20.20;1.00;;;;;;6349971;22;20439;-78
2022/07/26 02:27:35;;;;;;;11.30;9.90;;;20.20;1.00;;;;;;6348561;22;20424;-76
2022/07/26 02:30:07;;;;;;;12.37;11.07;;;20.20;1.00;;;;;;6347281;22;20410;-76
2022/07/26 02:32:34;;;;;;;13.27;11.93;;;20.20;1.00;;;;;;6350003;22;20754;-78
2022/07/26 02:35:12;;;;;;;13.17;11.77;;;20.20;1.00;;;;;;6347524;22;20504;-79
2022/07/26 02:37:39;;;;;;;14.20;11.47;;;20.10;1.00;;;;;;6350243;22;20414;-76
2022/07/26 02:40:09;;;;;;;13.27;12.07;;;20.10;1.00;;;;;;6349466;22;20390;-79
2022/07/26 02:42:37;;;;;;;12.50;11.20;;;20.10;1.00;;;;;;6350564;22;20580;-78
2022/07/26 02:45:09;;;;;;;15.20;11.37;;;20.00;1.00;;;;;;6348941;22;20389;-76
2022/07/26 02:47:47;;;;;;;12.27;11.07;;;20.00;1.00;;;;;;6350174;22;20600;-78
2022/07/26 02:50:16;;;;;;;14.03;11.67;;;20.00;1.00;;;;;;6350204;22;20819;-75
2022/07/26 02:52:48;;;;;;;11.73;10.63;;;20.00;1.00;;;;;;6350145;22;20445;-75
2022/07/26 02:55:16;;;;;;;13.70;11.13;;;19.90;1.00;;;;;;6347498;22;20425;-77
2022/07/26 02:57:50;;;;;;;13.47;12.03;;;19.90;1.00;;;;;;6349502;22;20384;-76
2022/07/26 03:00:18;;;;;;;10.27;9.27;;;19.80;1.00;;;;;;6346327;22;20495;-77
2022/07/26 03:02:50;;;;;;;11.60;10.50;;;19.80;1.00;;;;;;6348449;22;20365;-76
2022/07/26 03:05:17;;;;;;;10.77;9.77;;;19.80;1.00;;;;;;6348502;22;20428;-78
2022/07/26 03:07:47;;;;;;;13.40;10.00;;;19.80;1.00;;;;;;6348961;22;20392;-78
2022/07/26 03:10:15;;;;;;;10.53;9.50;;;19.80;1.00;;;;;;6318894;22;21017;-76
2022/07/26 03:12:46;;;;;;;11.80;10.40;;;19.80;1.00;;;;;;6349912;22;20456;-78
2022/07/26 03:15:14;;;;;;;12.57;11.17;;;19.80;1.00;;;;;;6348200;22;20433;-78
2022/07/26 03:17:43;;;;;;;11.33;10.13;;;19.80;1.00;;;;;;6349966;22;20508;-78
2022/07/26 03:20:11;;;;;;;11.73;10.53;;;19.70;1.00;;;;;;6347518;22;20455;-79
2022/07/26 03:22:38;;;;;;;11.93;10.73;;;19.80;1.00;;;;;;6351080;22;20531;-77
2022/07/26 03:25:05;;;;;;;11.33;10.17;;;19.70;1.00;;;;;;6349154;22;20425;-78
2022/07/26 03:27:37;;;;;;;14.03;11.23;;;19.70;1.00;;;;;;6350049;22;20501;-76
2022/07/26 03:30:04;;;;;;;12.20;10.90;;;19.70;1.00;;;;;;6349757;22;20421;-75
2022/07/26 03:32:36;;;;;;;12.20;10.90;;;19.70;1.00;;;;;;6350974;22;20457;-76
2022/07/26 03:35:04;;;;;;;11.33;10.20;;;19.70;1.00;;;;;;6349358;22;20449;-76
2022/07/26 03:37:31;;;;;;;12.50;11.20;;;19.70;1.00;;;;;;6350058;22;20409;-78
2022/07/26 03:39:58;;;;;;;11.00;9.90;;;19.70;1.00;;;;;;6349849;22;20461;-78
2022/07/26 03:42:25;;;;;;;12.30;9.60;;;19.70;1.00;;;;;;6344851;22;20501;-77
2022/07/26 03:44:51;;;;;;;22.83;20.73;;;19.70;1.00;;;;;;6347954;22;20917;-76
2022/07/26 03:47:18;;;;;;;10.00;9.00;;;19.70;1.00;;;;;;6351869;22;20421;-76
2022/07/26 03:49:50;;;;;;;9.07;8.17;;;19.70;1.00;;;;;;6352122;22;20386;-77
2022/07/26 03:52:17;;;;;;;11.03;8.20;;;19.60;1.00;;;;;;6348980;22;20417;-76
2022/07/26 03:54:53;;;;;;;13.23;7.90;;;19.60;1.00;;;;;;6350686;22;20397;-78
2022/07/26 03:57:19;;;;;;;9.17;7.93;;;19.60;1.00;;;;;;6350281;22;20452;-79
2022/07/26 03:59:48;;;;;;;9.43;7.40;;;19.60;1.00;;;;;;6351717;22;20476;-77
2022/07/26 04:02:15;;;;;;;8.83;7.13;;;19.60;1.00;;;;;;6350425;22;20708;-78
2022/07/26 04:04:51;;;;;;;9.27;7.43;;;19.60;1.00;;;;;;6351119;22;20441;-78
2022/07/26 04:07:18;;;;;;;8.60;6.03;;;19.70;1.00;;;;;;6353845;22;20504;-75
2022/07/26 04:09:48;;;;;;;9.33;6.57;;;19.70;1.00;;;;;;6351807;22;20386;-78
2022/07/26 04:12:15;;;;;;;7.60;6.63;;;19.70;1.00;;;;;;6348989;22;20436;-78
2022/07/26 04:14:45;;;;;;;11.10;6.20;;;19.70;1.00;;;;;;6349071;22;20429;-74
2022/07/26 04:17:13;;;;;;;6.70;5.60;;;19.70;1.00;;;;;;6351473;22;20420;-78
2022/07/26 04:19:40;;;;;;;7.70;6.00;;;19.70;1.00;;;;;;6352946;22;20417;-76
2022/07/26 04:22:09;;;;;;;8.70;5.83;;;19.70;1.00;;;;;;6351107;22;20381;-77
2022/07/26 04:24:36;;;;;;;7.77;5.20;;;19.70;1.00;;;;;;6352270;22;20415;-78
2022/07/26 04:27:08;;;;;;;9.30;5.47;;;19.70;1.00;;;;;;6349665;22;20413;-75
2022/07/26 04:29:35;;;;;;;7.00;5.30;;;19.70;1.00;;;;;;6351311;22;20425;-79
2022/07/26 04:32:04;;;;;;;10.00;4.90;;;19.70;1.00;;;;;;6349639;22;20425;-79
2022/07/26 04:34:31;;;;;;;9.07;4.47;;;19.70;1.00;;;;;;6348889;22;20428;-80
2022/07/26 04:36:59;;;;;;;7.33;5.00;;;19.70;1.00;;;;;;6349616;22;20840;-77
2022/07/26 04:39:30;;;;;;;7.47;4.50;;;19.70;1.00;;;;;;6351441;22;20416;-76
2022/07/26 04:41:56;;;;;;;7.27;4.47;;;19.70;1.00;;;;;;6349246;22;20435;-76
2022/07/26 04:44:28;;;;;;;7.97;4.60;;;19.80;1.00;;;;;;6349298;22;20424;-78
2022/07/26 04:46:55;;;;;;;8.00;4.97;;;19.80;1.00;;;;;;6352940;22;20765;-83
2022/07/26 04:49:29;;;;;;;7.30;4.90;;;19.90;1.00;;;;;;6353934;22;20488;-81
2022/07/26 04:51:58;;;;;;;7.33;4.60;;;19.90;1.00;;;;;;6351623;22;20424;-82
2022/07/26 04:54:30;;;;;;;6.33;4.60;;;19.90;1.00;;;;;;6354446;22;20400;-79
2022/07/26 04:56:56;;;;;;;8.90;5.40;;;20.00;1.00;;;;;;6353371;22;20432;-80
2022/07/26 04:59:28;;;;;;;7.20;4.77;;;20.00;1.00;;;;;;6351095;22;20420;-80
2022/07/26 05:01:55;;;;;;;9.30;4.53;;;20.10;1.00;;;;;;6354531;22;20493;-80
2022/07/26 05:04:23;;;;;;;8.73;5.70;;;20.10;1.00;;;;;;6351139;22;20496;-79
2022/07/26 05:06:50;;;;;;;6.70;4.83;;;20.20;1.00;;;;;;6353587;22;20424;-84
2022/07/26 05:09:17;;;;;;;8.00;4.90;;;20.20;1.00;;;;;;6351080;22;20877;-82
2022/07/26 05:11:55;;;;;;;8.60;6.00;;;20.20;1.00;;;;;;6357097;22;20397;-82
2022/07/26 05:14:23;;;;;;;6.73;5.00;;;20.20;1.00;;;;;;6353226;22;20425;-83
2022/07/26 05:16:50;;;;;;;12.50;6.30;;;20.30;1.00;;;;;;6352091;22;20397;-82
2022/07/26 05:19:18;;;;;;;8.47;6.67;;;20.30;1.00;;;;;;6353249;22;20417;-83
2022/07/26 05:21:50;;;;;;;8.53;5.60;;;20.30;1.00;;;;;;6353726;22;20401;-79
2022/07/26 05:24:17;;;;;;;8.13;5.63;;;20.20;1.00;;;;;;6350613;22;20510;-82
2022/07/26 05:26:50;;;;;;;9.93;6.63;;;20.20;1.00;;;;;;6347225;22;20413;-83
2022/07/26 05:29:17;;;;;;;9.60;5.53;;;20.20;1.00;;;;;;6349006;22;20427;-81
2022/07/26 05:32:01;;;;;;;10.10;5.77;;;20.20;1.00;;;;;;6355982;22;20425;-82
2022/07/26 05:34:28;;;;;;;10.17;5.73;;;20.30;1.00;;;;;;6349740;22;20437;-81
2022/07/26 05:36:55;;;;;;;10.77;5.77;;;20.20;1.00;;;;;;6355425;22;20432;-83
2022/07/26 05:39:31;;;;;;;8.40;5.80;;;20.20;1.00;;;;;;6352669;22;20442;-81
2022/07/26 05:41:59;;;;;;;9.17;5.57;;;20.20;1.00;;;;;;6357141;22;20393;-84
2022/07/26 05:44:29;;;;;;;8.90;5.50;;;20.20;1.00;;;;;;6357637;22;21201;-81
2022/07/26 05:46:55;;;;;;;7.87;5.23;;;20.20;1.00;;;;;;6354290;22;20409;-82
2022/07/26 05:49:26;;;;;;;8.63;5.53;;;20.20;1.00;;;;;;6351611;22;20872;-79
2022/07/26 05:51:54;;;;;;;11.23;5.80;;;20.30;1.00;;;;;;6352737;22;20418;-80
2022/07/26 05:54:26;;;;;;;8.90;5.47;;;20.30;1.00;;;;;;6349699;22;20495;-83
2022/07/26 05:56:53;;;;;;;10.40;6.07;;;20.40;1.00;;;;;;6322068;22;20457;-84
2022/07/26 05:59:22;;;;;;;8.93;6.00;;;20.50;1.00;;;;;;6351303;22;20476;-86
2022/07/26 06:01:49;;;;;;;10.53;5.53;;;20.50;1.00;;;;;;6351861;22;20425;-88
2022/07/26 06:04:18;;;;;;;8.80;5.13;;;20.60;1.00;;;;;;6318801;22;20491;-85
2022/07/26 06:06:47;;;;;;;8.57;4.73;;;20.70;1.00;;;;;;6349572;22;20409;-88
2022/07/26 06:09:16;;;;;;;9.87;4.70;;;20.70;1.00;;;;;;6340252;22;20453;-88
2022/07/26 06:11:43;;;;;;;8.33;4.70;;;20.80;1.00;;;;;;6355204;22;20813;-83
2022/07/26 06:14:15;;;;;;;9.10;4.63;;;20.90;1.00;;;;;;6354584;22;20438;-83
2022/07/26 06:16:46;;;;;;;10.73;4.70;;;21.10;1.00;;;;;;6354421;22;20396;-82
2022/07/26 06:19:16;;;;;;;10.13;4.80;;;21.10;1.00;;;;;;6353224;22;20408;-81
2022/07/26 06:21:44;;;;;;;14.97;6.60;;;21.30;1.00;;;;;;6353930;22;20445;-83
2022/07/26 06:24:17;;;;;;;9.70;5.73;;;21.40;1.00;;;;;;6352011;22;20453;-82
2022/07/26 06:26:49;;;;;;;6.20;4.70;;;21.40;1.00;;;;;;6353249;22;20445;-83
2022/07/26 06:29:16;;;;;;;8.87;4.00;;;21.50;1.00;;;;;;6352954;22;20389;-85
2022/07/26 06:31:44;;;;;;;6.60;4.23;;;21.50;1.00;;;;;;6355787;22;20472;-83
2022/07/26 06:34:18;;;;;;;7.83;4.20;;;21.50;1.00;;;;;;6351371;22;20400;-83
2022/07/26 06:36:45;;;;;;;7.53;4.20;;;21.50;1.00;;;;;;6338360;22;20426;-84
2022/07/26 06:39:16;;;;;;;9.30;4.10;;;21.60;1.00;;;;;;6356225;22;20613;-84
2022/07/26 06:41:43;;;;;;;9.93;4.37;;;21.70;1.00;;;;;;6354834;22;20428;-86
2022/07/26 06:44:14;;;;;;;7.93;4.40;;;21.70;1.00;;;;;;6352345;22;20515;-84
2022/07/26 06:46:41;;;;;;;6.10;3.57;;;21.80;1.00;;;;;;6355086;22;20894;-85
2022/07/26 06:49:14;;;;;;;10.03;4.00;;;21.80;1.00;;;;;;6355766;22;20464;-81
2022/07/26 06:51:41;;;;;;;10.50;4.13;;;21.80;1.00;;;;;;6354419;22;20440;-83
2022/07/26 06:54:08;;;;;;;6.57;3.43;;;21.80;1.00;;;;;;6356142;22;20514;-81
2022/07/26 06:56:35;;;;;;;9.23;4.30;;;21.90;1.00;;;;;;6351773;22;20445;-83
2022/07/26 06:59:05;;;;;;;7.87;3.90;;;21.90;1.00;;;;;;6350882;22;20403;-83
2022/07/26 07:01:38;;;;;;;6.73;3.10;;;22.00;1.00;;;;;;6352718;22;20403;-83
2022/07/26 07:04:06;;;;;;;6.93;3.33;;;22.00;1.00;;;;;;6355391;22;20523;-89
2022/07/26 07:06:40;;;;;;;9.17;4.07;;;22.10;1.00;;;;;;6355096;22;20417;-81
2022/07/26 07:09:07;;;;;;;9.10;3.27;;;22.20;1.00;;;;;;6346970;22;20455;-83
2022/07/26 07:11:36;;;;;;;8.10;3.60;;;22.20;1.00;;;;;;6351475;22;20386;-79
2022/07/26 07:14:03;;;;;;;9.87;3.50;;;22.20;1.00;;;;;;6349233;22;20420;-80
2022/07/26 07:16:35;;;;;;;8.27;3.50;;;22.30;1.00;;;;;;6350077;22;20420;-79
2022/07/26 07:19:01;;;;;;;6.20;3.13;;;22.40;1.00;;;;;;6347678;22;20418;-81
2022/07/26 07:21:28;;;;;;;7.70;3.20;;;22.50;1.00;;;;;;6335269;22;20421;-79
2022/07/26 07:23:57;;;;;;;13.80;4.70;;;22.60;1.00;;;;;;6349540;22;20393;-80
2022/07/26 07:26:26;;;;;;;7.77;3.10;;;22.60;1.00;;;;;;6351560;22;20480;-80
2022/07/26 07:28:58;;;;;;;6.20;3.00;;;22.70;1.00;;;;;;6349796;22;20456;-81
2022/07/26 07:31:26;;;;;;;9.93;3.17;;;22.70;1.00;;;;;;6349348;22;20429;-79
2022/07/26 07:33:56;;;;;;;7.00;3.50;;;22.70;1.00;;;;;;6350402;22;20408;-76
2022/07/26 07:36:23;;;;;;;7.37;3.30;;;22.70;1.00;;;;;;6349087;22;20410;-79
2022/07/26 07:38:51;;;;;;;5.70;2.20;;;22.70;1.00;;;;;;6350651;22;20463;-78
2022/07/26 07:41:19;;;;;;;6.60;3.07;;;22.80;1.00;;;;;;6345659;22;20378;-82
2022/07/26 07:43:46;;;;;;;7.17;2.87;;;22.80;1.00;;;;;;6348295;22;20429;-83
2022/07/26 07:46:13;;;;;;;6.73;3.17;;;22.70;1.00;;;;;;6348684;22;20413;-83
2022/07/26 07:48:41;;;;;;;5.67;2.93;;;22.60;1.00;;;;;;6348705;22;20833;-82
2022/07/26 07:51:08;;;;;;;5.47;2.77;;;22.60;1.00;;;;;;6347223;22;20503;-82
2022/07/26 07:53:35;;;;;;;6.07;3.00;;;22.70;1.00;;;;;;6349344;22;20475;-83
2022/07/26 07:56:02;;;;;;;7.13;2.80;;;22.70;1.00;;;;;;6351514;22;20452;-83
2022/07/26 07:58:30;;;;;;;7.40;3.70;;;22.80;1.00;;;;;;6350069;22;20418;-82
2022/07/26 08:00:57;;;;;;;10.00;3.00;;;22.90;1.00;;;;;;6348977;22;20445;-81
2022/07/26 08:03:24;;;;;;;5.83;2.70;;;22.90;1.00;;;;;;6345249;22;20393;-81
2022/07/26 08:05:58;;;;;;;7.73;2.77;;;22.90;1.00;;;;;;6352654;22;20433;-78
2022/07/26 08:08:24;;;;;;;6.17;2.47;;;22.80;1.00;;;;;;6351605;22;20413;-80
2022/07/26 08:10:56;;;;;;;7.20;2.83;;;23.10;1.00;;;;;;6352907;22;20415;-79
2022/07/26 08:13:23;;;;;;;8.53;3.30;;;23.20;1.00;;;;;;6335297;22;21122;-79
2022/07/26 08:15:57;;;;;;;5.20;2.53;;;23.50;1.00;;;;;;6352730;22;20475;-80
2022/07/26 08:18:25;;;;;;;6.93;2.80;;;23.80;1.00;;;;;;6351644;22;20496;-80
2022/07/26 08:20:56;;;;;;;5.50;2.80;;;24.20;1.00;;;;;;6352098;22;20386;-82
2022/07/26 08:23:23;;;;;;;6.23;2.70;;;24.30;1.00;;;;;;6351090;22;20502;-80
2022/07/26 08:25:59;;;;;;;7.83;2.63;;;24.30;1.00;;;;;;6353189;22;20925;-81
2022/07/26 08:28:28;;;;;;;5.10;2.83;;;24.50;1.00;;;;;;6351982;22;20427;-82
2022/07/26 08:30:57;;;;;;;5.70;2.80;;;24.70;1.00;;;;;;6352923;22;20393;-80
2022/07/26 08:33:24;;;;;;;6.27;2.50;;;24.70;1.00;;;;;;6352238;22;20441;-81
2022/07/26 08:35:56;;;;;;;5.00;2.10;;;24.70;1.00;;;;;;6356276;22;20412;-81
2022/07/26 08:38:23;;;;;;;7.70;2.57;;;24.70;1.00;;;;;;6353386;22;20813;-82
2022/07/26 08:40:54;;;;;;;8.77;3.03;;;24.50;1.00;;;;;;6354558;22;20455;-80
2022/07/26 08:43:22;;;;;;;6.50;2.60;;;24.30;1.00;;;;;;6353222;22;20449;-80
2022/07/26 08:45:53;;;;;;;6.53;3.10;;;24.10;1.00;;;;;;6354398;22;20452;-79
2022/07/26 08:48:23;;;;;;;6.50;1.70;;;24.10;1.00;;;;;;6352430;22;20405;-78
2022/07/26 08:50:57;;;;;;;6.07;2.20;;;24.10;1.00;;;;;;6355526;22;20512;-79
2022/07/26 08:53:24;;;;;;;5.23;2.23;;;24.00;1.00;;;;;;6356772;22;20595;-82
2022/07/26 08:55:57;;;;;;;4.80;2.40;;;24.00;1.00;;;;;;6352828;22;20449;-82
2022/07/26 08:58:27;;;;;;;5.40;2.67;;;24.00;1.00;;;;;;6361596;22;20384;-78
2022/07/26 09:01:05;;;;;;;6.80;2.73;;;24.00;1.00;;;;;;6360461;22;20381;-82
2022/07/26 09:03:37;;;;;;;11.23;2.80;;;24.30;1.00;;;;;;6355332;22;20392;-80
2022/07/26 09:06:18;;;;;;;7.67;2.90;;;24.50;1.00;;;;;;6352960;22;20382;-80
2022/07/26 09:08:47;;;;;;;5.33;2.30;;;24.70;1.00;;;;;;6354672;22;20381;-79
2022/07/26 09:11:29;;;;;;;5.90;2.57;;;24.70;1.00;;;;;;6354114;22;20389;-79
2022/07/26 09:13:58;;;;;;;7.03;2.07;;;24.80;1.00;;;;;;6355059;22;20472;-81
2022/07/26 09:16:26;;;;;;;5.37;1.73;;;24.90;1.00;;;;;;6355435;22;20402;-82
2022/07/26 09:19:18;;;;;;;5.00;2.10;;;25.10;1.00;;;;;;6352971;22;20432;-81
2022/07/26 09:21:46;;;;;;;6.43;2.27;;;25.10;1.00;;;;;;6357764;22;20412;-80
2022/07/26 09:24:36;;;;;;;7.13;2.07;;;24.80;1.00;;;;;;6341275;22;20408;-77
2022/07/26 09:27:05;;;;;;;5.97;1.93;;;24.60;1.00;;;;;;6351064;22;20389;-78
2022/07/26 09:29:46;;;;;;;6.23;2.83;;;24.70;1.00;;;;;;6357801;22;20421;-79
2022/07/26 09:32:21;;;;;;;5.53;1.80;;;24.90;1.00;;;;;;6351220;22;20570;-79
2022/07/26 09:35:08;;;;;;;7.80;2.60;;;25.50;1.00;;;;;;6351989;22;20428;-79
2022/07/26 09:37:39;;;;;;;8.07;2.50;;;25.80;1.00;;;;;;6355858;22;20448;-79
2022/07/26 09:40:15;;;;;;;6.33;1.90;;;25.70;1.00;;;;;;6353245;22;20393;-78
2022/07/26 09:42:58;;;;;;;7.57;2.53;;;25.30;1.00;;;;;;6353377;22;20377;-83
2022/07/26 09:45:26;;;;;;;9.57;2.37;;;25.00;1.00;;;;;;6354259;22;20425;-79
2022/07/26 09:47:57;;;;;;;6.00;1.60;;;24.90;1.00;;;;;;6358523;22;20392;-81
2022/07/26 09:50:35;;;;;;;8.67;2.20;;;25.10;1.00;;;;;;6352933;22;20417;-77
2022/07/26 09:53:07;;;;;;;6.90;2.03;;;25.10;1.00;;;;;;6354088;22;20389;-78
2022/07/26 09:55:56;;;;;;;7.07;2.40;;;25.30;1.00;;;;;;6355213;22;20445;-78
2022/07/26 09:58:24;;;;;;;8.30;1.97;;;26.30;1.00;;;;;;6353378;22;20395;-78
2022/07/26 10:00:56;;;;;;;7.60;2.50;;;28.20;1.00;;;;;;6354663;22;20424;-83
2022/07/26 10:03:23;;;;;;;7.40;2.07;;;29.50;1.00;;;;;;6356125;22;20493;-79
2022/07/26 10:05:58;;;;;;;7.17;2.00;;;31.10;1.00;;;;;;6353044;22;20516;-80
2022/07/26 10:08:26;;;;;;;6.80;1.60;;;31.40;1.00;;;;;;6350287;22;20428;-80
2022/07/26 10:11:02;;;;;;;6.63;1.80;;;32.40;1.00;;;;;;6353384;22;20457;-79
2022/07/26 10:13:30;;;;;;;7.60;2.20;;;33.30;1.00;;;;;;6348932;22;20432;-80
2022/07/26 10:15:58;;;;;;;10.20;6.40;;;33.50;1.00;;;;;;6349926;22;20491;-80
2022/07/26 10:18:46;;;;;;;6.53;1.83;;;34.00;1.00;;;;;;6350647;22;20496;-79
2022/07/26 10:21:25;;;;;;;7.43;2.27;;;33.30;1.00;;;;;;6321629;22;20457;-79
2022/07/26 10:23:58;;;;;;;8.63;2.40;;;31.70;1.00;;;;;;6350803;22;20504;-77
2022/07/26 10:26:39;;;;;;;6.70;2.20;;;30.20;1.00;;;;;;6349687;22;20414;-81
2022/07/26 10:29:26;;;;;;;6.10;2.07;;;29.10;1.00;;;;;;6350058;22;20983;-79
2022/07/26 10:32:19;;;;;;;6.70;2.07;;;28.30;1.00;;;;;;6340853;22;20383;-79
2022/07/26 10:34:46;;;;;;;6.20;2.13;;;27.80;1.00;;;;;;6352725;22;20424;-79
2022/07/26 10:37:26;;;;;;;5.90;1.90;;;27.50;1.00;;;;;;6352650;22;20413;-78
2022/07/26 10:40:17;;;;;;;6.00;2.00;;;27.80;1.00;;;;;;6355177;22;20417;-79
2022/07/26 10:42:47;;;;;;;6.43;1.70;;;29.00;1.00;;;;;;6340578;22;20394;-79
2022/07/26 10:45:23;;;;;;;6.30;1.90;;;28.90;1.00;;;;;;6352625;22;20392;-80
2022/07/26 10:48:22;;;;;;;6.43;1.97;;;28.50;1.00;;;;;;6354582;22;20380;-80
2022/07/26 10:50:56;;;;;;;6.47;2.20;;;28.00;1.00;;;;;;6257056;22;20569;-81
2022/07/26 10:53:26;;;;;;;5.90;1.93;;;27.50;1.00;;;;;;6335793;22;20491;-83
2022/07/26 10:55:57;;;;;;;7.07;2.07;;;27.00;1.00;;;;;;6352878;22;20405;-83
2022/07/26 10:58:25;;;;;;;11.00;2.30;;;26.60;1.00;;;;;;6350968;22;20411;-81
2022/07/26 11:00:57;;;;;;;6.93;2.33;;;26.40;1.00;;;;;;6346692;22;20436;-81
2022/07/26 11:03:35;;;;;;;7.00;2.10;;;26.30;1.00;;;;;;6352645;22;20461;-80
2022/07/26 11:06:18;;;;;;;7.63;1.90;;;26.90;1.00;;;;;;6349293;22;20382;-82
2022/07/26 11:08:49;;;;;;;6.80;1.90;;;29.10;1.00;;;;;;6351467;22;20456;-81
2022/07/26 11:11:29;;;;;;;5.90;1.60;;;32.00;1.00;;;;;;6350824;22;20389;-80
2022/07/26 11:14:06;;;;;;;6.40;2.30;;;33.80;1.00;;;;;;6354145;22;20444;-83
2022/07/26 11:16:44;;;;;;;8.03;2.23;;;33.40;1.00;;;;;;6351496;22;20443;-84
2022/07/26 11:19:19;;;;;;;7.90;2.37;;;32.50;1.00;;;;;;6352338;22;20389;-85
2022/07/26 11:21:55;;;;;;;6.47;2.00;;;31.50;1.00;;;;;;6351861;22;20483;-81
2022/07/26 11:24:25;;;;;;;6.13;2.03;;;30.90;1.00;;;;;;6353806;22;20378;-81
2022/07/26 11:27:03;;;;;;;6.30;1.53;;;31.70;1.00;;;;;;6352966;22;20440;-81
2022/07/26 11:29:38;;;;;;;6.60;2.40;;;33.80;1.00;;;;;;6351050;22;20741;-80
2022/07/26 11:32:06;;;;;;;8.67;2.20;;;35.80;1.00;;;;;;6353770;22;20380;-82
2022/07/26 11:34:37;;;;;;;7.43;2.10;;;35.90;1.00;;;;;;6348578;22;20414;-83
2022/07/26 11:37:05;;;;;;;7.03;2.03;;;35.00;1.00;;;;;;6347933;22;20420;-84
2022/07/26 11:39:35;;;;;;;6.57;1.97;;;34.60;1.00;;;;;;6350288;22;20920;-80
2022/07/26 11:42:14;;;;;;;5.37;1.90;;;33.60;1.00;;;;;;6336547;22;21236;-84
2022/07/26 11:44:43;;;;;;;7.27;2.10;;;32.20;1.00;;;;;;6353800;22;20456;-81
2022/07/26 11:47:18;;;;;;;7.03;2.27;;;31.30;1.00;;;;;;6351367;22;20370;-81
2022/07/26 11:49:57;;;;;;;;;;;;;;;;;;;;;
2022/07/26 11:52:41;;;;;;;7.63;2.17;;;30.00;1.00;;;;;;6327796;22;49257;-83
2022/07/26 11:55:24;;;;;;;7.07;2.27;;;29.40;1.00;;;;;;6351989;22;21232;-82
2022/07/26 11:57:55;;;;;;;7.33;1.80;;;28.70;1.00;;;;;;6348723;22;20392;-79
2022/07/26 12:00:22;;;;;;;7.37;2.20;;;28.00;1.00;;;;;;6351813;22;20441;-82
2022/07/26 12:02:56;;;;;;;6.00;1.97;;;27.50;1.00;;;;;;6353262;22;20422;-81
2022/07/26 12:05:23;;;;;;;8.13;2.27;;;27.00;1.00;;;;;;6355111;22;20397;-80
2022/07/26 12:07:57;;;;;;;7.20;2.57;;;26.70;1.00;;;;;;6327635;22;20452;-80
2022/07/26 12:10:33;;;;;;;5.90;2.80;;;26.10;1.00;;;;;;6354568;22;20859;-82
2022/07/26 12:13:15;;;;;;;9.33;2.77;;;25.30;1.00;;;;;;6356114;22;20412;-81
2022/07/26 12:15:46;;;;;;;7.87;3.07;;;24.90;1.00;;;;;;6356048;22;20445;-80
2022/07/26 12:18:23;;;;;;;7.67;2.67;;;24.70;1.00;;;;;;6356680;22;20369;-79
2022/07/26 12:21:05;;;;;;;7.80;4.60;;;24.70;1.00;;;;;;6353619;22;20412;-79
2022/07/26 12:24:02;;;;;;;7.20;3.30;;;24.80;1.00;;;;;;6354799;22;20381;-82
2022/07/26 12:26:35;;;;;;;7.47;2.67;;;25.00;1.00;;;;;;6356121;22;20404;-81
2022/07/26 12:32:02;;;;;;;9.60;3.00;;;24.70;1.00;;;;;;6358471;22;20449;-80
2022/07/26 12:34:34;;;;;;;11.60;3.40;;;24.00;1.00;;;;;;6353715;22;20463;-82
2022/07/26 12:37:13;;;;;;;7.57;3.40;;;23.30;1.00;;;;;;6355177;22;21129;-80
2022/07/26 12:39:40;;;;;;;9.93;4.20;;;22.10;1.00;;;;;;6356035;22;20412;-81
2022/07/26 12:42:27;;;;;;;9.13;4.83;;;21.00;1.00;;;;;;6353133;22;20433;-83
2022/07/26 12:44:57;;;;;;;9.20;4.47;;;20.20;1.00;;;;;;6356848;22;20552;-82
2022/07/26 12:47:46;;;;;;;7.30;4.50;;;19.60;1.00;;;;;;6355470;22;20413;-82
2022/07/26 12:50:17;;;;;;;7.90;4.70;;;19.30;1.00;;;;;;6330951;22;20449;-81
2022/07/26 12:52:46;;;;;;;6.73;4.57;;;18.90;1.00;;;;;;6355254;22;20465;-81
2022/07/26 12:55:16;;;;;;;8.90;4.43;;;18.80;1.00;;;;;;6355764;22;20421;-81
2022/07/26 12:57:48;;;;;;;7.27;4.50;;;18.70;1.00;;;;;;6358753;22;20403;-79
2022/07/26 13:00:17;;;;;;;6.00;3.27;;;18.60;1.00;;;;;;6352285;22;20506;-79
2022/07/26 13:02:45;;;;;;;6.00;3.53;;;18.50;1.00;;;;;;6361301;22;20511;-81
2022/07/26 13:05:14;;;;;;;5.83;3.23;;;18.40;1.00;;;;;;6355612;22;20381;-82
2022/07/26 13:07:45;;;;;;;8.17;3.13;;;18.30;1.00;;;;;;6356008;22;20417;-79
2022/07/26 13:10:14;;;;;;;4.97;2.97;;;18.40;1.00;;;;;;6350897;22;20479;-80
2022/07/26 13:12:42;;;;;;;6.00;3.20;;;18.40;1.00;;;;;;6350582;22;20397;-80
2022/07/26 13:15:14;;;;;;;4.97;3.20;;;18.30;1.00;;;;;;6349758;22;20829;-81
2022/07/26 13:17:43;;;;;;;6.40;3.53;;;18.40;1.00;;;;;;6349669;22;20412;-80